createdAt,value
2022-10-13T00:00:42.777Z,8.24
2022-10-13T00:03:10.654Z,8.20
2022-10-13T00:05:45.154Z,8.14
2022-10-13T00:08:12.868Z,8.10
2022-10-13T00:10:45.909Z,8.04
2022-10-13T00:13:13.063Z,7.98
2022-10-13T00:15:41.261Z,7.91
2022-10-13T00:18:08.405Z,7.84
2022-10-13T00:20:35.580Z,7.79
2022-10-13T00:23:02.564Z,7.76
2022-10-13T00:25:29.637Z,7.17
2022-10-13T00:27:56.634Z,7.74
2022-10-13T00:30:35.806Z,7.69
2022-10-13T00:33:02.817Z,7.66
2022-10-13T00:35:29.733Z,7.66
2022-10-13T00:37:56.762Z,7.65
2022-10-13T00:40:27.181Z,7.62
2022-10-13T00:42:54.272Z,7.64
2022-10-13T00:45:21.159Z,7.60
2022-10-13T00:47:50.248Z,7.59
2022-10-13T00:50:23.674Z,7.55
2022-10-13T00:52:56.352Z,7.52
2022-10-13T00:55:26.392Z,7.52
2022-10-13T00:57:55.310Z,7.51
2022-10-13T01:00:30.787Z,7.52
2022-10-13T01:02:58.099Z,7.53
2022-10-13T01:05:25.394Z,7.55
2022-10-13T01:07:56.960Z,7.50
2022-10-13T01:10:35.178Z,7.42
2022-10-13T01:13:34.675Z,7.32
2022-10-13T01:16:13.925Z,7.16
2022-10-13T01:18:52.753Z,7.03
2022-10-13T01:21:39.068Z,6.92
2022-10-13T01:24:06.023Z,6.83
2022-10-13T01:26:59.201Z,6.79
2022-10-13T01:29:45.191Z,6.70
2022-10-13T01:32:16.721Z,6.66
2022-10-13T01:34:45.056Z,6.66
2022-10-13T01:37:19.371Z,6.64
2022-10-13T01:40:04.854Z,6.60
2022-10-13T01:42:35.787Z,6.63
2022-10-13T01:45:08.054Z,6.69
2022-10-13T01:47:35.581Z,6.72
2022-10-13T01:50:03.014Z,6.77
2022-10-13T01:52:33.561Z,6.83
2022-10-13T01:55:05.032Z,6.91
2022-10-13T01:57:33.553Z,6.90
2022-10-13T02:00:02.366Z,6.93
2022-10-13T02:02:54.994Z,6.97
2022-10-13T02:05:38.327Z,7.03
2022-10-13T02:08:10.775Z,7.09
2022-10-13T02:10:46.782Z,7.16
2022-10-13T02:13:15.252Z,7.16
2022-10-13T02:15:47.936Z,7.15
2022-10-13T02:18:16.036Z,7.11
2022-10-13T02:20:45.030Z,7.08
2022-10-13T02:23:15.334Z,7.03
2022-10-13T02:25:42.631Z,7.00
2022-10-13T02:28:10.403Z,7.01
2022-10-13T02:30:43.954Z,7.05
2022-10-13T02:33:11.503Z,7.12
2022-10-13T02:35:39.102Z,7.13
2022-10-13T02:38:06.338Z,7.19
2022-10-13T02:40:33.385Z,7.26
2022-10-13T02:43:00.328Z,7.25
2022-10-13T02:45:27.272Z,7.28
2022-10-13T02:47:55.549Z,7.33
2022-10-13T02:50:22.586Z,7.35
2022-10-13T02:52:50.794Z,7.38
2022-10-13T02:55:17.913Z,7.38
2022-10-13T02:57:45.937Z,7.37
2022-10-13T03:00:13.915Z,7.38
2022-10-13T03:02:41.004Z,7.38
2022-10-13T03:05:08.200Z,7.42
2022-10-13T03:07:35.168Z,7.46
2022-10-13T03:10:02.394Z,7.47
2022-10-13T03:12:30.128Z,7.44
2022-10-13T03:14:57.578Z,7.37
2022-10-13T03:17:24.562Z,7.27
2022-10-13T03:19:51.517Z,7.19
2022-10-13T03:22:19.576Z,7.16
2022-10-13T03:24:46.841Z,7.11
2022-10-13T03:27:14.589Z,7.01
2022-10-13T03:29:41.616Z,6.99
2022-10-13T03:32:09.133Z,6.92
2022-10-13T03:34:36.125Z,6.91
2022-10-13T03:37:03.128Z,6.92
2022-10-13T03:39:34.025Z,6.92
2022-10-13T03:42:01.132Z,6.92
2022-10-13T03:44:28.293Z,6.92
2022-10-13T03:46:55.292Z,6.94
2022-10-13T03:49:22.212Z,7.00
2022-10-13T03:51:49.255Z,7.09
2022-10-13T03:54:16.293Z,7.14
2022-10-13T03:56:45.393Z,7.12
2022-10-13T03:59:13.112Z,7.08
2022-10-13T04:01:40.317Z,7.08
2022-10-13T04:04:09.320Z,7.10
2022-10-13T04:06:38.034Z,7.16
2022-10-13T04:09:05.540Z,7.19
2022-10-13T04:11:32.533Z,7.26
2022-10-13T04:13:59.642Z,7.33
2022-10-13T04:16:27.923Z,7.39
2022-10-13T04:19:02.081Z,7.51
2022-10-13T04:21:30.029Z,7.59
2022-10-13T04:23:58.549Z,7.66
2022-10-13T04:26:27.008Z,7.68
2022-10-13T04:28:54.689Z,7.73
2022-10-13T04:31:22.379Z,7.68
2022-10-13T04:33:50.356Z,7.69
2022-10-13T04:36:18.364Z,7.74
2022-10-13T04:38:46.949Z,7.71
2022-10-13T04:41:14.956Z,7.73
2022-10-13T04:43:42.437Z,7.76
2022-10-13T04:46:12.811Z,7.78
2022-10-13T04:48:39.958Z,7.82
2022-10-13T04:51:11.641Z,7.83
2022-10-13T04:53:38.956Z,7.92
2022-10-13T04:56:10.605Z,7.98
2022-10-13T04:58:38.481Z,8.02
2022-10-13T05:01:07.066Z,8.06
2022-10-13T05:03:34.673Z,8.07
2022-10-13T05:06:01.862Z,8.12
2022-10-13T05:08:28.978Z,8.18
2022-10-13T05:10:55.902Z,8.21
2022-10-13T05:13:23.006Z,8.26
2022-10-13T05:15:50.513Z,8.32
2022-10-13T05:18:22.000Z,8.34
2022-10-13T05:20:49.277Z,8.33
2022-10-13T05:23:16.714Z,8.33
2022-10-13T05:25:43.892Z,8.36
2022-10-13T05:28:13.863Z,8.45
2022-10-13T05:30:40.952Z,8.54
2022-10-13T05:33:07.920Z,8.65
2022-10-13T05:35:35.138Z,8.68
2022-10-13T05:38:02.091Z,8.73
2022-10-13T05:40:29.465Z,8.83
2022-10-13T05:43:00.713Z,8.85
2022-10-13T05:45:29.772Z,8.83
2022-10-13T05:47:56.786Z,8.76
2022-10-13T05:50:23.860Z,8.93
2022-10-13T05:52:51.488Z,9.04
2022-10-13T05:55:19.321Z,9.15
2022-10-13T05:57:50.013Z,9.20
2022-10-13T06:00:19.136Z,9.26
2022-10-13T06:02:54.300Z,9.34
2022-10-13T06:05:23.538Z,9.42
2022-10-13T06:07:55.038Z,9.58
2022-10-13T06:10:23.846Z,9.71
2022-10-13T06:12:51.275Z,9.78
2022-10-13T06:15:18.463Z,9.72
2022-10-13T06:17:45.589Z,9.49
2022-10-13T06:20:12.933Z,9.20
2022-10-13T06:22:40.443Z,9.66
2022-10-13T06:25:07.874Z,10.48
2022-10-13T06:27:34.972Z,11.23
2022-10-13T06:30:02.230Z,11.65
2022-10-13T06:32:30.531Z,11.81
2022-10-13T06:34:57.504Z,11.88
2022-10-13T06:37:27.283Z,11.73
2022-10-13T06:39:54.937Z,11.58
2022-10-13T06:42:22.457Z,11.80
2022-10-13T06:45:08.216Z,12.71
2022-10-13T06:47:35.448Z,12.56
2022-10-13T06:50:02.420Z,12.26
2022-10-13T06:52:29.851Z,12.02
2022-10-13T06:54:56.837Z,11.77
2022-10-13T06:57:23.803Z,11.56
2022-10-13T06:59:53.016Z,11.41
2022-10-13T07:02:20.437Z,11.35
2022-10-13T07:04:47.768Z,11.24
2022-10-13T07:07:15.055Z,11.19
2022-10-13T07:09:42.908Z,11.19
2022-10-13T07:12:10.544Z,11.17
2022-10-13T07:14:39.298Z,11.14
2022-10-13T07:17:10.618Z,11.19
2022-10-13T07:19:37.691Z,11.16
2022-10-13T07:22:04.672Z,11.12
2022-10-13T07:24:31.987Z,11.06
2022-10-13T07:27:00.914Z,11.06
2022-10-13T07:29:30.955Z,11.16
2022-10-13T07:31:58.026Z,11.25
2022-10-13T07:34:25.055Z,11.40
2022-10-13T07:36:52.033Z,11.69
2022-10-13T07:39:19.022Z,11.95
2022-10-13T07:41:50.752Z,12.14
2022-10-13T07:44:18.264Z,12.25
2022-10-13T07:46:45.281Z,12.35
2022-10-13T07:49:15.322Z,12.42
2022-10-13T07:51:45.055Z,12.60
2022-10-13T07:54:12.237Z,12.86
2022-10-13T07:56:39.783Z,13.05
2022-10-13T07:59:07.740Z,13.17
2022-10-13T08:01:35.174Z,13.18
2022-10-13T08:04:02.550Z,13.17
2022-10-13T08:06:29.604Z,12.77
2022-10-13T08:08:58.418Z,12.65
2022-10-13T08:11:25.909Z,12.65
2022-10-13T08:13:53.425Z,12.94
2022-10-13T08:16:23.626Z,13.44
2022-10-13T08:18:50.823Z,14.10
2022-10-13T08:24:06.652Z,15.04
2022-10-13T08:26:33.949Z,15.09
2022-10-13T08:29:20.832Z,14.67
2022-10-13T08:34:20.114Z,14.14
2022-10-13T08:36:47.478Z,14.21
2022-10-13T08:39:14.681Z,14.10
2022-10-13T08:41:46.149Z,13.97
2022-10-13T08:47:10.650Z,13.21
2022-10-13T08:49:40.321Z,12.87
2022-10-13T08:52:13.993Z,12.61
2022-10-13T08:54:40.936Z,12.57
2022-10-13T08:57:09.421Z,12.55
2022-10-13T08:59:36.665Z,12.60
2022-10-13T09:02:10.624Z,12.78
2022-10-13T09:04:41.618Z,12.72
2022-10-13T09:07:11.490Z,12.90
2022-10-13T09:09:38.948Z,12.94
2022-10-13T09:12:06.556Z,12.89
2022-10-13T09:14:35.670Z,12.88
2022-10-13T09:17:16.824Z,12.91
2022-10-13T09:19:58.130Z,13.00
2022-10-13T09:22:26.792Z,12.97
2022-10-13T09:25:03.359Z,12.99
2022-10-13T09:27:41.174Z,13.06
2022-10-13T09:30:27.061Z,13.07
2022-10-13T09:33:13.834Z,13.05
2022-10-13T09:35:42.411Z,13.08
2022-10-13T09:38:20.503Z,13.13
2022-10-13T09:41:01.930Z,13.19
2022-10-13T09:43:48.123Z,13.20
2022-10-13T09:46:32.200Z,13.15
2022-10-13T09:49:02.072Z,13.34
2022-10-13T09:51:43.877Z,13.53
2022-10-13T09:54:28.595Z,13.45
2022-10-13T09:57:02.000Z,13.29
2022-10-13T09:59:39.416Z,13.14
2022-10-13T10:02:30.783Z,12.78
2022-10-13T10:05:01.370Z,12.68
2022-10-13T10:07:31.833Z,12.73
2022-10-13T10:10:05.585Z,12.70
2022-10-13T10:12:36.687Z,12.68
2022-10-13T10:15:14.874Z,12.75
2022-10-13T10:17:52.850Z,12.84
2022-10-13T10:20:38.843Z,12.98
2022-10-13T10:23:15.066Z,13.04
2022-10-13T10:25:48.696Z,13.08
2022-10-13T10:28:38.585Z,13.03
2022-10-13T10:31:11.555Z,12.92
2022-10-13T10:34:14.832Z,12.88
2022-10-13T10:36:52.670Z,12.99
2022-10-13T10:39:28.838Z,12.86
2022-10-13T10:41:58.685Z,12.68
2022-10-13T10:44:30.808Z,12.53
2022-10-13T10:47:01.488Z,12.40
2022-10-13T10:49:35.509Z,12.43
2022-10-13T10:52:06.167Z,12.50
2022-10-13T10:54:51.968Z,12.54
2022-10-13T10:57:19.517Z,12.40
2022-10-13T10:59:52.665Z,12.35
2022-10-13T11:02:19.752Z,12.24
2022-10-13T11:04:50.136Z,12.09
2022-10-13T11:07:23.100Z,11.90
2022-10-13T11:09:53.096Z,11.65
2022-10-13T11:12:20.810Z,11.47
2022-10-13T11:15:02.292Z,11.43
2022-10-13T11:17:34.658Z,11.30
2022-10-13T11:20:21.583Z,11.30
2022-10-13T11:22:57.765Z,11.30
2022-10-13T11:25:43.890Z,11.25
2022-10-13T11:28:23.611Z,11.29
2022-10-13T11:30:50.921Z,11.30
2022-10-13T11:33:50.672Z,10.93
2022-10-13T11:36:29.720Z,11.18
2022-10-13T11:39:16.946Z,11.14
2022-10-13T11:41:50.128Z,11.07
2022-10-13T11:44:26.022Z,10.89
2022-10-13T11:47:23.966Z,10.78
2022-10-13T11:49:51.568Z,10.62
2022-10-13T11:52:22.020Z,10.47
2022-10-13T11:54:52.065Z,10.33
2022-10-13T11:57:20.722Z,10.22
2022-10-13T11:59:48.729Z,10.15
2022-10-13T12:02:19.250Z,10.17
2022-10-13T12:04:59.612Z,10.15
2022-10-13T12:07:29.902Z,10.16
2022-10-13T12:09:59.663Z,10.13
2022-10-13T12:12:26.926Z,10.09
2022-10-13T12:14:55.846Z,10.03
2022-10-13T12:17:27.317Z,9.92
2022-10-13T12:19:55.536Z,9.89
2022-10-13T12:22:22.727Z,9.90
2022-10-13T12:25:07.478Z,9.91
2022-10-13T12:27:48.198Z,9.87
2022-10-13T12:30:27.535Z,9.78
2022-10-13T12:32:55.765Z,9.78
2022-10-13T12:35:27.345Z,9.81
2022-10-13T12:37:55.152Z,9.79
2022-10-13T12:40:23.075Z,9.83
2022-10-13T12:42:50.788Z,9.84
2022-10-13T12:45:19.615Z,9.84
2022-10-13T12:47:49.240Z,9.87
2022-10-13T12:50:25.709Z,9.84
2022-10-13T12:52:54.393Z,9.86
2022-10-13T12:55:23.146Z,9.90
2022-10-13T12:57:51.670Z,9.99
2022-10-13T13:00:18.861Z,10.12
2022-10-13T13:03:06.429Z,10.18
2022-10-13T13:05:38.402Z,10.29
2022-10-13T13:08:25.010Z,10.37
2022-10-13T13:11:00.103Z,10.43
2022-10-13T13:13:27.706Z,10.50
2022-10-13T13:16:13.239Z,10.65
2022-10-13T13:18:42.415Z,10.85
2022-10-13T13:21:11.542Z,11.01
2022-10-13T13:23:42.332Z,11.06
2022-10-13T13:26:20.185Z,10.97
2022-10-13T13:28:48.647Z,10.87
2022-10-13T13:31:16.837Z,10.80
2022-10-13T13:33:44.069Z,10.81
2022-10-13T13:36:18.774Z,10.78
2022-10-13T13:38:47.974Z,10.73
2022-10-13T13:41:15.856Z,10.63
2022-10-13T13:43:42.941Z,10.41
2022-10-13T13:46:20.950Z,10.20
2022-10-13T13:48:48.176Z,10.00
2022-10-13T13:51:15.525Z,9.85
2022-10-13T13:53:44.922Z,9.73
2022-10-13T13:56:16.471Z,9.57
2022-10-13T13:58:44.859Z,9.43
2022-10-13T14:01:12.603Z,9.28
2022-10-13T14:03:40.017Z,9.20
2022-10-13T14:06:09.483Z,9.15
2022-10-13T14:08:42.743Z,9.17
2022-10-13T14:11:10.700Z,9.21
2022-10-13T14:13:37.885Z,9.25
2022-10-13T14:16:05.267Z,9.32
2022-10-13T14:18:32.405Z,9.23
2022-10-13T14:20:59.460Z,9.14
2022-10-13T14:23:26.493Z,9.00
2022-10-13T14:25:54.226Z,8.85
2022-10-13T14:28:22.677Z,8.67
2022-10-13T14:30:50.059Z,8.54
2022-10-13T14:33:19.610Z,8.46
2022-10-13T14:35:47.237Z,8.33
2022-10-13T14:38:16.567Z,8.19
2022-10-13T14:40:44.957Z,8.10
2022-10-13T14:43:12.143Z,8.05
2022-10-13T14:45:39.209Z,7.98
2022-10-13T14:48:06.327Z,7.95
2022-10-13T14:50:34.302Z,7.92
2022-10-13T14:53:01.309Z,7.88
2022-10-13T14:55:28.798Z,7.20
2022-10-13T14:57:55.914Z,7.93
2022-10-13T15:00:22.973Z,7.96
2022-10-13T15:02:49.980Z,7.97
2022-10-13T15:05:19.032Z,8.01
2022-10-13T15:07:46.094Z,8.04
2022-10-13T15:10:13.265Z,8.03
2022-10-13T15:12:40.364Z,7.99
2022-10-13T15:15:07.765Z,7.98
2022-10-13T15:17:34.872Z,7.93
2022-10-13T15:20:01.859Z,7.89
2022-10-13T15:22:30.362Z,7.87
2022-10-13T15:24:57.441Z,7.82
2022-10-13T15:27:24.412Z,7.78
2022-10-13T15:29:51.554Z,7.84
2022-10-13T15:32:19.199Z,7.95
2022-10-13T15:34:54.897Z,8.03
2022-10-13T15:37:22.364Z,7.96
2022-10-13T15:39:53.294Z,7.93
2022-10-13T15:42:24.136Z,7.96
2022-10-13T15:45:08.775Z,8.03
2022-10-13T15:47:37.278Z,8.04
2022-10-13T15:50:04.587Z,8.05
2022-10-13T15:52:34.962Z,8.05
2022-10-13T15:55:02.368Z,8.03
2022-10-13T15:57:31.168Z,7.99
2022-10-13T15:59:58.154Z,7.94
2022-10-13T16:02:25.212Z,7.83
2022-10-13T16:04:52.141Z,7.73
2022-10-13T16:07:19.082Z,7.65
2022-10-13T16:09:46.157Z,7.65
2022-10-13T16:12:13.153Z,7.71
2022-10-13T16:14:40.148Z,7.72
2022-10-13T16:17:07.145Z,7.71
2022-10-13T16:19:34.174Z,7.71
2022-10-13T16:22:01.174Z,7.67
2022-10-13T16:24:29.034Z,7.59
2022-10-13T16:26:56.358Z,7.54
2022-10-13T16:29:24.510Z,7.53
2022-10-13T16:31:51.836Z,7.59
2022-10-13T16:34:19.063Z,7.65
2022-10-13T16:36:46.014Z,7.59
2022-10-13T16:39:13.006Z,7.49
2022-10-13T16:41:40.403Z,7.35
2022-10-13T16:44:07.433Z,7.20
2022-10-13T16:46:34.487Z,7.08
2022-10-13T16:49:02.113Z,7.06
2022-10-13T16:51:29.182Z,7.02
2022-10-13T16:54:02.756Z,7.00
2022-10-13T16:56:31.243Z,6.99
2022-10-13T16:58:59.178Z,7.05
2022-10-13T17:01:26.658Z,7.15
2022-10-13T17:03:53.886Z,7.31
2022-10-13T17:06:21.966Z,7.41
2022-10-13T17:08:55.080Z,7.46
2022-10-13T17:11:23.772Z,7.43
2022-10-13T17:13:51.211Z,7.51
2022-10-13T17:16:18.805Z,7.56
2022-10-13T17:18:46.609Z,7.56
2022-10-13T17:21:14.750Z,7.56
2022-10-13T17:23:47.342Z,7.58
2022-10-13T17:26:16.450Z,7.62
2022-10-13T17:28:43.806Z,7.63
2022-10-13T17:31:15.947Z,7.66
2022-10-13T17:33:43.564Z,7.63
2022-10-13T17:36:15.008Z,7.67
2022-10-13T17:38:42.378Z,7.63
2022-10-13T17:41:10.458Z,7.59
2022-10-13T17:43:44.833Z,7.58
2022-10-13T17:46:34.952Z,7.56
2022-10-13T17:49:00.272Z,7.67
2022-10-13T17:51:28.000Z,7.78
2022-10-13T17:53:55.512Z,7.74
2022-10-13T17:56:24.311Z,7.65
2022-10-13T17:58:51.647Z,7.56
2022-10-13T18:01:28.536Z,7.41
2022-10-13T18:03:57.089Z,7.32
2022-10-13T18:06:36.825Z,7.32
2022-10-13T18:09:10.180Z,7.32
2022-10-13T18:11:37.389Z,7.32
2022-10-13T18:14:04.484Z,7.27
2022-10-13T18:16:31.948Z,7.17
2022-10-13T18:18:58.939Z,7.03
2022-10-13T18:21:29.630Z,6.91
2022-10-13T18:23:57.608Z,6.84
2022-10-13T18:26:25.905Z,6.79
2022-10-13T18:28:53.523Z,6.70
2022-10-13T18:31:21.921Z,6.66
2022-10-13T18:33:51.103Z,6.67
2022-10-13T18:36:24.677Z,6.74
2022-10-13T18:38:52.645Z,6.90
2022-10-13T18:41:20.829Z,7.08
2022-10-13T18:43:47.857Z,7.20
2022-10-13T18:46:18.894Z,7.22
2022-10-13T18:48:47.547Z,7.30
2022-10-13T18:51:16.195Z,7.33
2022-10-13T18:53:44.894Z,7.35
2022-10-13T18:56:16.720Z,7.34
2022-10-13T18:58:43.797Z,7.40
2022-10-13T19:01:12.673Z,7.42
2022-10-13T19:03:40.567Z,7.41
2022-10-13T19:06:08.950Z,7.43
2022-10-13T19:08:36.734Z,7.45
2022-10-13T19:11:13.037Z,7.47
2022-10-13T19:13:40.557Z,7.50
2022-10-13T19:16:08.021Z,7.51
2022-10-13T19:18:35.606Z,7.55
2022-10-13T19:21:02.771Z,7.60
2022-10-13T19:23:29.795Z,7.61
2022-10-13T19:25:56.862Z,7.64
2022-10-13T19:28:24.251Z,7.62
2022-10-13T19:30:54.804Z,7.63
2022-10-13T19:33:21.804Z,7.63
2022-10-13T19:35:54.147Z,7.61
2022-10-13T19:38:21.249Z,7.62
2022-10-13T19:40:52.704Z,7.63
2022-10-13T19:43:19.800Z,7.62
2022-10-13T19:45:47.693Z,7.66
2022-10-13T19:48:15.850Z,7.67
2022-10-13T19:50:43.828Z,7.66
2022-10-13T19:53:13.875Z,7.62
2022-10-13T19:55:41.897Z,7.60
2022-10-13T19:58:08.905Z,7.59
2022-10-13T20:00:36.296Z,7.57
2022-10-13T20:03:04.105Z,7.54
2022-10-13T20:05:31.333Z,7.50
2022-10-13T20:07:58.465Z,7.50
2022-10-13T20:10:25.599Z,7.48
2022-10-13T20:12:52.621Z,7.49
2022-10-13T20:15:19.860Z,7.45
2022-10-13T20:17:48.104Z,7.45
2022-10-13T20:20:18.850Z,7.45
2022-10-13T20:22:48.600Z,7.46
2022-10-13T20:25:19.763Z,7.45
2022-10-13T20:27:47.103Z,7.43
2022-10-13T20:30:14.517Z,7.41
2022-10-13T20:32:41.666Z,7.40
2022-10-13T20:35:08.926Z,7.42
2022-10-13T20:37:36.201Z,7.41
2022-10-13T20:40:03.291Z,7.44
2022-10-13T20:42:31.801Z,7.47
2022-10-13T20:44:58.760Z,7.47
2022-10-13T20:47:25.753Z,7.44
2022-10-13T20:49:52.786Z,7.44
2022-10-13T20:52:19.933Z,7.43
2022-10-13T20:54:48.336Z,7.43
2022-10-13T20:57:15.325Z,7.43
2022-10-13T20:59:45.089Z,6.88
2022-10-13T21:02:16.779Z,7.44
2022-10-13T21:04:43.840Z,7.45
2022-10-13T21:07:10.810Z,7.46
2022-10-13T21:09:37.841Z,7.45
2022-10-13T21:12:04.926Z,7.45
2022-10-13T21:14:32.112Z,7.43
2022-10-13T21:16:59.127Z,7.44
2022-10-13T21:19:26.350Z,6.78
2022-10-13T21:21:53.301Z,7.45
2022-10-13T21:24:20.281Z,7.44
2022-10-13T21:26:47.589Z,7.43
2022-10-13T21:29:15.349Z,7.44
2022-10-13T21:31:42.416Z,7.47
2022-10-13T21:34:10.361Z,7.52
2022-10-13T21:36:37.535Z,7.55
2022-10-13T21:39:05.220Z,7.51
2022-10-13T21:41:33.024Z,7.46
2022-10-13T21:44:00.147Z,7.43
2022-10-13T21:46:31.751Z,7.38
2022-10-13T21:48:59.804Z,7.35
2022-10-13T21:51:29.686Z,7.35
2022-10-13T21:54:00.518Z,7.35
2022-10-13T21:56:30.727Z,7.27
2022-10-13T21:58:59.362Z,7.21
2022-10-13T22:01:26.487Z,7.21
2022-10-13T22:03:55.351Z,7.22
2022-10-13T22:06:26.095Z,7.24
2022-10-13T22:08:54.213Z,7.21
2022-10-13T22:11:22.233Z,7.16
2022-10-13T22:13:49.395Z,7.10
2022-10-13T22:16:18.579Z,7.08
2022-10-13T22:18:45.744Z,7.07
2022-10-13T22:21:17.056Z,7.03
2022-10-13T22:23:45.064Z,6.99
2022-10-13T22:26:12.286Z,6.94
2022-10-13T22:28:39.897Z,6.93
2022-10-13T22:31:11.774Z,6.93
2022-10-13T22:33:40.203Z,6.93
2022-10-13T22:36:17.575Z,6.93
2022-10-13T22:38:44.983Z,6.92
2022-10-13T22:41:13.317Z,6.92
2022-10-13T22:43:40.493Z,6.95
2022-10-13T22:46:17.458Z,6.95
2022-10-13T22:48:44.896Z,6.98
2022-10-13T22:51:15.145Z,7.01
2022-10-13T22:53:42.340Z,7.03
2022-10-13T22:56:11.710Z,7.00
2022-10-13T22:58:38.713Z,6.99
2022-10-13T23:01:06.965Z,6.99
2022-10-13T23:03:34.493Z,6.97
2022-10-13T23:06:02.285Z,6.96
2022-10-13T23:08:29.238Z,6.95
2022-10-13T23:10:56.256Z,6.94
2022-10-13T23:13:23.257Z,6.93
2022-10-13T23:15:50.593Z,6.91
2022-10-13T23:18:17.774Z,6.90
2022-10-13T23:20:45.100Z,6.20
2022-10-13T23:23:14.436Z,6.92
2022-10-13T23:25:41.548Z,6.89
2022-10-13T23:28:08.529Z,6.87
2022-10-13T23:30:35.460Z,6.85
2022-10-13T23:33:02.411Z,6.84
2022-10-13T23:35:29.527Z,6.84
2022-10-13T23:37:56.505Z,6.82
2022-10-13T23:40:23.489Z,6.80
2022-10-13T23:42:50.467Z,6.79
2022-10-13T23:45:17.476Z,6.82
2022-10-13T23:47:44.960Z,6.78
2022-10-13T23:50:11.976Z,6.73
2022-10-13T23:52:38.913Z,6.77
2022-10-13T23:55:06.131Z,6.79
2022-10-13T23:57:33.071Z,6.79
